Aeroporto :
LOGIN :

Iscrizione | Disclaimer

   EN    FR    IT 

 










Sommario :    VFR   VFR Marginale   IFR   IFR Intensivo   IFR Molto Intensivo
Visibilità : 
Base nubi : 
>= 8 km
>= 3000ft
5 / 8 km
1000 / 3000 ft
1500m / 5 km
500 / 1000 ft
800 / 1500m
200 / 500 ft
< 800m
< 200 ft
Simboli :   Temporali  Nebbia  Neve Forte  Precipitazioni Forti  Vento > 20 kt
SIGMETs :   Varie  Temporali  Ghiacco  Turbolenza  Onda orograficha  Ceneri Vulcaniche







- Altitudine del aeroporto : 821 ft
- Codice IATA : LYS
- Carte del aeroporto


LFLL - Lyon St Exupéry / Satolas

ULTIMO METAR :
  • 230930Z 36014KT CAVOK 25/15 Q1016 NOSIG

METARs OBSOLETI :
  • 230900Z 01012KT CAVOK 25/14 Q1017 NOSIG
  • 230830Z 36010KT CAVOK 24/14 Q1017 NOSIG
  • 230800Z 35010KT 320V020 CAVOK 23/14 Q1017 NOSIG
  • 230730Z 35009KT CAVOK 22/13 Q1017 NOSIG
  • 230700Z 36008KT CAVOK 21/13 Q1017 NOSIG

TAF TAF LFLL
Valido dal 23 a 06 ore il 24 a 12 ore UTC


230500Z 2306/2412 34005KT CAVOK
BECMG 2308/2310 36013KT
BECMG 2320/2322 VRB03KT
Nessun NOTAM noto per questo aeroporto.



MetMap, La meteo Aeronautica in un colpo d'occhio ! - Copyright ORBIFLY Dicembre 2007 - Disclaimer

ORBIFLY MET'MAP TEAM :

Programmazione e sviluppo : Alexandra Zaïnal
Concezione e sviluppo : Baudouin d'Aumeries
Co-Programmazione e sviluppo : Marc-Olivier Méhu
Supporto tecnico e logistico : Manuel Goepfert
Aiuto per la traduzione : Arnaldo La Scala

Contatto : metmap@orbifly.com




FONTI E CREDITI :

   NOAA